Terminal Aerodrome Forecast
Issued by NWS Norman, OK

Home | Current Version | Previous Version | Text Only | Print | Product List | Glossary On
Versions: 1 2 3 4 5 6 7 8 9 10 11 12 13 14 15
000
FTUS44 KOUN 272330
TAFOKC
TAF
KOKC 272330Z 2800/2824 VRB05KT P6SM VCTS SCT050CB BKN250
      TEMPO 2800/2801 VRB30KT 2SM TSRA OVC035CB
     FM280200 11006KT P6SM SCT250=

USA.gov is the U.S. government's official web portal to all federal, state and local government web resources and services.